sensor_id;sensor_type;location;lat;lon;timestamp;P1;durP1;ratioP1;P2;durP2;ratioP2
45358;SDS011;31096;49.292;8.710;2023-08-21T00:03:55;6.50;;;3.88;;
45358;SDS011;31096;49.292;8.710;2023-08-21T00:08:45;8.37;;;4.80;;
45358;SDS011;31096;49.292;8.710;2023-08-21T00:13:36;7.97;;;5.03;;
45358;SDS011;31096;49.292;8.710;2023-08-21T00:18:27;7.20;;;4.35;;
45358;SDS011;31096;49.292;8.710;2023-08-21T00:23:17;7.73;;;4.27;;
45358;SDS011;31096;49.292;8.710;2023-08-21T00:28:08;8.63;;;4.10;;
45358;SDS011;31096;49.292;8.710;2023-08-21T00:32:59;7.30;;;4.63;;
45358;SDS011;31096;49.292;8.710;2023-08-21T00:37:49;6.27;;;4.27;;
45358;SDS011;31096;49.292;8.710;2023-08-21T00:42:40;8.13;;;4.80;;
45358;SDS011;31096;49.292;8.710;2023-08-21T00:47:31;7.53;;;4.53;;
45358;SDS011;31096;49.292;8.710;2023-08-21T00:52:21;12.17;;;5.10;;
45358;SDS011;31096;49.292;8.710;2023-08-21T00:57:12;7.68;;;5.00;;
45358;SDS011;31096;49.292;8.710;2023-08-21T01:02:04;7.97;;;4.77;;
45358;SDS011;31096;49.292;8.710;2023-08-21T01:06:54;6.40;;;4.50;;
45358;SDS011;31096;49.292;8.710;2023-08-21T01:11:54;10.10;;;5.10;;
45358;SDS011;31096;49.292;8.710;2023-08-21T01:17:32;6.57;;;4.70;;
45358;SDS011;31096;49.292;8.710;2023-08-21T01:22:25;6.93;;;3.97;;
45358;SDS011;31096;49.292;8.710;2023-08-21T01:27:17;6.93;;;4.07;;
45358;SDS011;31096;49.292;8.710;2023-08-21T01:32:21;7.15;;;4.05;;
45358;SDS011;31096;49.292;8.710;2023-08-21T01:37:32;5.97;;;4.22;;
45358;SDS011;31096;49.292;8.710;2023-08-21T01:42:23;7.77;;;4.30;;
45358;SDS011;31096;49.292;8.710;2023-08-21T01:47:13;6.93;;;4.13;;
45358;SDS011;31096;49.292;8.710;2023-08-21T01:52:04;6.95;;;5.10;;
45358;SDS011;31096;49.292;8.710;2023-08-21T01:56:55;8.07;;;4.07;;
45358;SDS011;31096;49.292;8.710;2023-08-21T02:01:45;7.07;;;4.60;;
45358;SDS011;31096;49.292;8.710;2023-08-21T02:06:36;7.78;;;4.40;;
45358;SDS011;31096;49.292;8.710;2023-08-21T02:11:26;6.00;;;4.07;;
45358;SDS011;31096;49.292;8.710;2023-08-21T02:16:17;7.70;;;4.33;;
45358;SDS011;31096;49.292;8.710;2023-08-21T02:21:08;7.07;;;4.40;;
45358;SDS011;31096;49.292;8.710;2023-08-21T02:25:58;7.63;;;4.93;;
45358;SDS011;31096;49.292;8.710;2023-08-21T02:30:49;6.93;;;3.87;;
45358;SDS011;31096;49.292;8.710;2023-08-21T02:35:40;7.17;;;4.57;;
45358;SDS011;31096;49.292;8.710;2023-08-21T02:40:30;7.10;;;4.70;;
45358;SDS011;31096;49.292;8.710;2023-08-21T02:45:21;6.20;;;4.20;;
45358;SDS011;31096;49.292;8.710;2023-08-21T02:50:12;6.63;;;3.90;;
45358;SDS011;31096;49.292;8.710;2023-08-21T02:55:03;8.18;;;4.78;;
45358;SDS011;31096;49.292;8.710;2023-08-21T02:59:55;7.90;;;5.10;;
45358;SDS011;31096;49.292;8.710;2023-08-21T03:04:46;6.35;;;4.30;;
45358;SDS011;31096;49.292;8.710;2023-08-21T03:09:38;7.32;;;4.45;;
45358;SDS011;31096;49.292;8.710;2023-08-21T03:14:30;7.40;;;4.60;;
45358;SDS011;31096;49.292;8.710;2023-08-21T03:19:20;5.87;;;4.30;;
45358;SDS011;31096;49.292;8.710;2023-08-21T03:24:11;8.13;;;5.03;;
45358;SDS011;31096;49.292;8.710;2023-08-21T03:29:02;7.13;;;4.50;;
45358;SDS011;31096;49.292;8.710;2023-08-21T03:33:53;8.40;;;3.70;;
45358;SDS011;31096;49.292;8.710;2023-08-21T03:38:43;7.03;;;4.60;;
45358;SDS011;31096;49.292;8.710;2023-08-21T03:43:34;7.30;;;4.47;;
45358;SDS011;31096;49.292;8.710;2023-08-21T03:48:25;6.20;;;4.05;;
45358;SDS011;31096;49.292;8.710;2023-08-21T03:53:16;7.07;;;4.90;;
45358;SDS011;31096;49.292;8.710;2023-08-21T03:58:06;7.60;;;4.03;;
45358;SDS011;31096;49.292;8.710;2023-08-21T04:02:57;7.43;;;4.40;;
45358;SDS011;31096;49.292;8.710;2023-08-21T04:07:48;6.03;;;3.55;;
45358;SDS011;31096;49.292;8.710;2023-08-21T04:12:38;6.87;;;4.10;;
45358;SDS011;31096;49.292;8.710;2023-08-21T04:17:29;6.60;;;4.90;;
45358;SDS011;31096;49.292;8.710;2023-08-21T04:22:20;7.43;;;4.60;;
45358;SDS011;31096;49.292;8.710;2023-08-21T04:27:10;7.23;;;4.50;;
45358;SDS011;31096;49.292;8.710;2023-08-21T04:32:01;6.93;;;4.90;;
45358;SDS011;31096;49.292;8.710;2023-08-21T04:36:52;6.85;;;4.30;;
45358;SDS011;31096;49.292;8.710;2023-08-21T04:41:42;6.73;;;4.50;;
45358;SDS011;31096;49.292;8.710;2023-08-21T04:46:33;7.17;;;4.80;;
45358;SDS011;31096;49.292;8.710;2023-08-21T04:51:24;7.20;;;4.23;;
45358;SDS011;31096;49.292;8.710;2023-08-21T04:56:14;7.17;;;4.57;;
45358;SDS011;31096;49.292;8.710;2023-08-21T05:01:05;7.97;;;4.95;;
45358;SDS011;31096;49.292;8.710;2023-08-21T05:05:56;9.63;;;5.47;;
45358;SDS011;31096;49.292;8.710;2023-08-21T05:10:47;6.80;;;5.40;;
45358;SDS011;31096;49.292;8.710;2023-08-21T05:15:37;8.65;;;4.88;;
45358;SDS011;31096;49.292;8.710;2023-08-21T05:20:28;9.10;;;4.97;;
45358;SDS011;31096;49.292;8.710;2023-08-21T05:25:19;7.60;;;5.50;;
45358;SDS011;31096;49.292;8.710;2023-08-21T05:30:09;6.93;;;5.10;;
45358;SDS011;31096;49.292;8.710;2023-08-21T05:35:03;10.32;;;5.40;;
45358;SDS011;31096;49.292;8.710;2023-08-21T05:39:54;7.80;;;4.87;;
45358;SDS011;31096;49.292;8.710;2023-08-21T05:44:44;6.70;;;4.85;;
45358;SDS011;31096;49.292;8.710;2023-08-21T05:49:35;5.87;;;4.40;;
45358;SDS011;31096;49.292;8.710;2023-08-21T05:54:25;7.43;;;4.63;;
45358;SDS011;31096;49.292;8.710;2023-08-21T05:59:26;9.50;;;5.28;;
45358;SDS011;31096;49.292;8.710;2023-08-21T06:04:19;6.83;;;4.57;;
45358;SDS011;31096;49.292;8.710;2023-08-21T06:09:10;5.90;;;4.77;;
45358;SDS011;31096;49.292;8.710;2023-08-21T06:14:00;8.20;;;5.13;;
45358;SDS011;31096;49.292;8.710;2023-08-21T06:18:51;6.60;;;4.57;;
45358;SDS011;31096;49.292;8.710;2023-08-21T06:23:41;11.40;;;4.55;;
45358;SDS011;31096;49.292;8.710;2023-08-21T06:28:32;7.70;;;5.60;;
45358;SDS011;31096;49.292;8.710;2023-08-21T06:33:23;8.43;;;4.77;;
45358;SDS011;31096;49.292;8.710;2023-08-21T06:38:13;8.07;;;5.70;;
45358;SDS011;31096;49.292;8.710;2023-08-21T06:43:04;7.50;;;5.33;;
45358;SDS011;31096;49.292;8.710;2023-08-21T06:47:55;7.50;;;5.55;;
45358;SDS011;31096;49.292;8.710;2023-08-21T06:52:46;8.10;;;5.50;;
45358;SDS011;31096;49.292;8.710;2023-08-21T06:57:37;7.13;;;5.53;;
45358;SDS011;31096;49.292;8.710;2023-08-21T07:02:27;8.43;;;5.60;;
45358;SDS011;31096;49.292;8.710;2023-08-21T07:07:18;6.13;;;4.07;;
45358;SDS011;31096;49.292;8.710;2023-08-21T07:12:09;7.10;;;4.63;;
45358;SDS011;31096;49.292;8.710;2023-08-21T07:16:59;7.32;;;5.20;;
45358;SDS011;31096;49.292;8.710;2023-08-21T07:21:50;11.27;;;5.80;;
45358;SDS011;31096;49.292;8.710;2023-08-21T07:26:41;9.17;;;5.80;;
45358;SDS011;31096;49.292;8.710;2023-08-21T07:31:31;9.27;;;5.55;;
45358;SDS011;31096;49.292;8.710;2023-08-21T07:36:22;8.67;;;5.77;;
45358;SDS011;31096;49.292;8.710;2023-08-21T07:41:13;9.40;;;5.70;;
45358;SDS011;31096;49.292;8.710;2023-08-21T07:46:08;7.88;;;5.82;;
45358;SDS011;31096;49.292;8.710;2023-08-21T07:51:12;10.65;;;5.72;;
45358;SDS011;31096;49.292;8.710;2023-08-21T07:56:04;7.63;;;5.53;;
45358;SDS011;31096;49.292;8.710;2023-08-21T08:00:56;7.73;;;6.00;;
45358;SDS011;31096;49.292;8.710;2023-08-21T08:05:46;9.07;;;6.38;;
45358;SDS011;31096;49.292;8.710;2023-08-21T08:10:38;9.27;;;6.27;;
45358;SDS011;31096;49.292;8.710;2023-08-21T08:15:30;9.15;;;6.40;;
45358;SDS011;31096;49.292;8.710;2023-08-21T08:20:20;8.00;;;6.30;;
45358;SDS011;31096;49.292;8.710;2023-08-21T08:25:11;9.30;;;5.72;;
45358;SDS011;31096;49.292;8.710;2023-08-21T08:30:03;9.17;;;5.90;;
45358;SDS011;31096;49.292;8.710;2023-08-21T08:34:54;7.93;;;5.80;;
45358;SDS011;31096;49.292;8.710;2023-08-21T08:39:48;8.60;;;5.45;;
45358;SDS011;31096;49.292;8.710;2023-08-21T08:44:39;9.73;;;6.10;;
45358;SDS011;31096;49.292;8.710;2023-08-21T08:49:31;7.78;;;6.13;;
45358;SDS011;31096;49.292;8.710;2023-08-21T08:54:22;8.30;;;6.03;;
45358;SDS011;31096;49.292;8.710;2023-08-21T08:59:12;9.95;;;6.82;;
45358;SDS011;31096;49.292;8.710;2023-08-21T09:04:04;10.18;;;7.15;;
45358;SDS011;31096;49.292;8.710;2023-08-21T09:08:55;9.47;;;7.33;;
45358;SDS011;31096;49.292;8.710;2023-08-21T09:13:50;8.65;;;6.47;;
45358;SDS011;31096;49.292;8.710;2023-08-21T09:18:53;8.10;;;6.30;;
45358;SDS011;31096;49.292;8.710;2023-08-21T09:23:51;9.13;;;6.30;;
45358;SDS011;31096;49.292;8.710;2023-08-21T09:28:49;12.32;;;7.53;;
45358;SDS011;31096;49.292;8.710;2023-08-21T09:33:42;9.67;;;6.60;;
45358;SDS011;31096;49.292;8.710;2023-08-21T09:38:33;7.55;;;5.93;;
45358;SDS011;31096;49.292;8.710;2023-08-21T09:43:25;9.60;;;6.57;;
45358;SDS011;31096;49.292;8.710;2023-08-21T09:48:16;7.70;;;6.40;;
45358;SDS011;31096;49.292;8.710;2023-08-21T09:53:07;9.17;;;6.43;;
45358;SDS011;31096;49.292;8.710;2023-08-21T09:57:58;7.57;;;6.10;;
45358;SDS011;31096;49.292;8.710;2023-08-21T10:02:50;8.50;;;6.13;;
45358;SDS011;31096;49.292;8.710;2023-08-21T10:07:41;8.80;;;6.00;;
45358;SDS011;31096;49.292;8.710;2023-08-21T10:12:35;7.78;;;5.90;;
45358;SDS011;31096;49.292;8.710;2023-08-21T10:17:26;7.80;;;5.63;;
45358;SDS011;31096;49.292;8.710;2023-08-21T10:22:35;6.88;;;5.15;;
45358;SDS011;31096;49.292;8.710;2023-08-21T10:27:33;9.13;;;6.20;;
45358;SDS011;31096;49.292;8.710;2023-08-21T10:32:25;7.07;;;5.90;;
45358;SDS011;31096;49.292;8.710;2023-08-21T10:37:15;7.78;;;5.43;;
45358;SDS011;31096;49.292;8.710;2023-08-21T10:42:10;7.53;;;5.30;;
45358;SDS011;31096;49.292;8.710;2023-08-21T10:52:23;5.67;;;4.70;;
45358;SDS011;31096;49.292;8.710;2023-08-21T10:57:18;7.15;;;5.63;;
45358;SDS011;31096;49.292;8.710;2023-08-21T11:02:09;7.30;;;5.65;;
45358;SDS011;31096;49.292;8.710;2023-08-21T11:07:04;7.77;;;6.40;;
45358;SDS011;31096;49.292;8.710;2023-08-21T11:11:55;7.20;;;5.82;;
45358;SDS011;31096;49.292;8.710;2023-08-21T11:16:46;7.37;;;5.30;;
45358;SDS011;31096;49.292;8.710;2023-08-21T11:21:37;8.00;;;5.37;;
45358;SDS011;31096;49.292;8.710;2023-08-21T11:26:28;6.47;;;5.40;;
45358;SDS011;31096;49.292;8.710;2023-08-21T11:31:19;6.73;;;5.40;;
45358;SDS011;31096;49.292;8.710;2023-08-21T11:36:10;7.33;;;5.33;;
45358;SDS011;31096;49.292;8.710;2023-08-21T11:41:01;6.97;;;4.97;;
45358;SDS011;31096;49.292;8.710;2023-08-21T11:45:55;8.50;;;5.57;;
45358;SDS011;31096;49.292;8.710;2023-08-21T11:50:47;7.23;;;4.97;;
45358;SDS011;31096;49.292;8.710;2023-08-21T11:55:38;7.75;;;5.88;;
45358;SDS011;31096;49.292;8.710;2023-08-21T12:00:29;7.03;;;6.23;;
45358;SDS011;31096;49.292;8.710;2023-08-21T12:05:20;8.23;;;6.22;;
45358;SDS011;31096;49.292;8.710;2023-08-21T12:10:11;9.40;;;6.17;;
45358;SDS011;31096;49.292;8.710;2023-08-21T12:15:02;7.67;;;6.07;;
45358;SDS011;31096;49.292;8.710;2023-08-21T12:19:53;8.00;;;6.22;;
45358;SDS011;31096;49.292;8.710;2023-08-21T12:24:44;8.17;;;5.90;;
45358;SDS011;31096;49.292;8.710;2023-08-21T12:29:34;8.83;;;6.80;;
45358;SDS011;31096;49.292;8.710;2023-08-21T12:34:26;7.30;;;6.20;;
45358;SDS011;31096;49.292;8.710;2023-08-21T12:39:16;9.53;;;6.80;;
45358;SDS011;31096;49.292;8.710;2023-08-21T12:44:07;8.10;;;6.63;;
45358;SDS011;31096;49.292;8.710;2023-08-21T12:48:58;7.95;;;5.90;;
45358;SDS011;31096;49.292;8.710;2023-08-21T12:53:51;10.32;;;6.28;;
45358;SDS011;31096;49.292;8.710;2023-08-21T12:58:41;7.40;;;6.10;;
45358;SDS011;31096;49.292;8.710;2023-08-21T13:03:35;7.97;;;6.53;;
45358;SDS011;31096;49.292;8.710;2023-08-21T13:08:25;7.60;;;6.00;;
45358;SDS011;31096;49.292;8.710;2023-08-21T13:13:17;8.85;;;5.80;;
45358;SDS011;31096;49.292;8.710;2023-08-21T13:18:07;8.73;;;5.87;;
45358;SDS011;31096;49.292;8.710;2023-08-21T13:22:58;7.40;;;5.60;;
45358;SDS011;31096;49.292;8.710;2023-08-21T13:27:49;8.43;;;5.60;;
45358;SDS011;31096;49.292;8.710;2023-08-21T13:32:41;8.13;;;6.07;;
45358;SDS011;31096;49.292;8.710;2023-08-21T13:37:35;7.63;;;6.18;;
45358;SDS011;31096;49.292;8.710;2023-08-21T13:42:26;7.38;;;5.43;;
45358;SDS011;31096;49.292;8.710;2023-08-21T13:47:21;7.00;;;5.23;;
45358;SDS011;31096;49.292;8.710;2023-08-21T13:52:12;7.68;;;4.88;;
45358;SDS011;31096;49.292;8.710;2023-08-21T13:57:03;6.97;;;5.10;;
45358;SDS011;31096;49.292;8.710;2023-08-21T14:01:53;6.27;;;4.53;;
45358;SDS011;31096;49.292;8.710;2023-08-21T14:06:44;8.43;;;5.20;;
45358;SDS011;31096;49.292;8.710;2023-08-21T14:11:35;6.00;;;5.03;;
45358;SDS011;31096;49.292;8.710;2023-08-21T14:16:26;6.07;;;4.90;;
45358;SDS011;31096;49.292;8.710;2023-08-21T14:21:17;6.03;;;5.03;;
45358;SDS011;31096;49.292;8.710;2023-08-21T14:26:07;18.35;;;5.53;;
45358;SDS011;31096;49.292;8.710;2023-08-21T14:30:58;6.43;;;4.80;;
45358;SDS011;31096;49.292;8.710;2023-08-21T14:35:49;7.07;;;4.90;;
45358;SDS011;31096;49.292;8.710;2023-08-21T14:40:40;6.35;;;4.55;;
45358;SDS011;31096;49.292;8.710;2023-08-21T14:45:30;6.17;;;5.03;;
45358;SDS011;31096;49.292;8.710;2023-08-21T14:50:21;7.00;;;4.93;;
45358;SDS011;31096;49.292;8.710;2023-08-21T14:55:12;7.40;;;4.95;;
45358;SDS011;31096;49.292;8.710;2023-08-21T15:00:03;7.43;;;4.97;;
45358;SDS011;31096;49.292;8.710;2023-08-21T15:04:54;5.88;;;4.35;;
45358;SDS011;31096;49.292;8.710;2023-08-21T15:09:45;5.60;;;4.50;;
45358;SDS011;31096;49.292;8.710;2023-08-21T15:14:35;6.90;;;4.75;;
45358;SDS011;31096;49.292;8.710;2023-08-21T15:19:26;7.40;;;5.50;;
45358;SDS011;31096;49.292;8.710;2023-08-21T15:24:17;6.65;;;5.15;;
45358;SDS011;31096;49.292;8.710;2023-08-21T15:29:08;7.23;;;5.00;;
45358;SDS011;31096;49.292;8.710;2023-08-21T15:33:58;6.07;;;4.73;;
45358;SDS011;31096;49.292;8.710;2023-08-21T15:38:49;7.60;;;4.60;;
45358;SDS011;31096;49.292;8.710;2023-08-21T15:43:40;5.77;;;4.93;;
45358;SDS011;31096;49.292;8.710;2023-08-21T15:48:32;7.82;;;5.18;;
45358;SDS011;31096;49.292;8.710;2023-08-21T15:53:24;7.20;;;4.93;;
45358;SDS011;31096;49.292;8.710;2023-08-21T15:58:15;8.33;;;5.23;;
45358;SDS011;31096;49.292;8.710;2023-08-21T16:03:11;7.60;;;5.17;;
45358;SDS011;31096;49.292;8.710;2023-08-21T16:08:03;6.40;;;4.90;;
45358;SDS011;31096;49.292;8.710;2023-08-21T16:12:53;5.73;;;4.47;;
45358;SDS011;31096;49.292;8.710;2023-08-21T16:17:44;6.80;;;4.85;;
45358;SDS011;31096;49.292;8.710;2023-08-21T16:22:37;7.47;;;5.53;;
45358;SDS011;31096;49.292;8.710;2023-08-21T16:27:33;5.60;;;4.22;;
45358;SDS011;31096;49.292;8.710;2023-08-21T16:32:25;8.07;;;5.07;;
45358;SDS011;31096;49.292;8.710;2023-08-21T16:37:16;8.32;;;4.70;;
45358;SDS011;31096;49.292;8.710;2023-08-21T16:42:06;5.40;;;4.40;;
45358;SDS011;31096;49.292;8.710;2023-08-21T16:46:57;5.60;;;4.43;;
45358;SDS011;31096;49.292;8.710;2023-08-21T16:51:48;6.40;;;4.67;;
45358;SDS011;31096;49.292;8.710;2023-08-21T16:56:39;5.80;;;4.57;;
45358;SDS011;31096;49.292;8.710;2023-08-21T17:01:29;6.80;;;4.75;;
45358;SDS011;31096;49.292;8.710;2023-08-21T17:06:20;5.73;;;4.23;;
45358;SDS011;31096;49.292;8.710;2023-08-21T17:11:11;6.60;;;4.50;;
45358;SDS011;31096;49.292;8.710;2023-08-21T17:16:01;6.65;;;4.50;;
45358;SDS011;31096;49.292;8.710;2023-08-21T17:20:53;9.00;;;4.80;;
45358;SDS011;31096;49.292;8.710;2023-08-21T17:25:44;6.50;;;4.55;;
45358;SDS011;31096;49.292;8.710;2023-08-21T17:30:34;5.57;;;4.50;;
45358;SDS011;31096;49.292;8.710;2023-08-21T17:35:25;7.17;;;4.33;;
45358;SDS011;31096;49.292;8.710;2023-08-21T17:40:17;9.13;;;4.93;;
45358;SDS011;31096;49.292;8.710;2023-08-21T17:45:08;6.85;;;4.72;;
45358;SDS011;31096;49.292;8.710;2023-08-21T17:49:59;8.80;;;5.73;;
45358;SDS011;31096;49.292;8.710;2023-08-21T17:54:50;7.75;;;5.50;;
45358;SDS011;31096;49.292;8.710;2023-08-21T17:59:42;6.63;;;5.10;;
45358;SDS011;31096;49.292;8.710;2023-08-21T18:04:33;7.97;;;4.75;;
45358;SDS011;31096;49.292;8.710;2023-08-21T18:09:24;9.53;;;5.20;;
45358;SDS011;31096;49.292;8.710;2023-08-21T18:14:15;7.65;;;5.47;;
45358;SDS011;31096;49.292;8.710;2023-08-21T18:19:06;6.17;;;4.93;;
45358;SDS011;31096;49.292;8.710;2023-08-21T18:23:57;6.35;;;4.32;;
45358;SDS011;31096;49.292;8.710;2023-08-21T18:28:47;6.27;;;4.53;;
45358;SDS011;31096;49.292;8.710;2023-08-21T18:33:38;5.75;;;4.20;;
45358;SDS011;31096;49.292;8.710;2023-08-21T18:38:29;6.00;;;4.50;;
45358;SDS011;31096;49.292;8.710;2023-08-21T18:43:20;5.80;;;4.37;;
45358;SDS011;31096;49.292;8.710;2023-08-21T18:48:10;6.67;;;5.17;;
45358;SDS011;31096;49.292;8.710;2023-08-21T18:53:02;5.77;;;4.30;;
45358;SDS011;31096;49.292;8.710;2023-08-21T18:57:54;6.63;;;4.63;;
45358;SDS011;31096;49.292;8.710;2023-08-21T19:02:45;6.15;;;3.67;;
45358;SDS011;31096;49.292;8.710;2023-08-21T19:07:37;6.07;;;3.40;;
45358;SDS011;31096;49.292;8.710;2023-08-21T19:12:28;6.03;;;4.38;;
45358;SDS011;31096;49.292;8.710;2023-08-21T19:17:18;7.10;;;4.17;;
45358;SDS011;31096;49.292;8.710;2023-08-21T19:22:10;6.38;;;4.30;;
45358;SDS011;31096;49.292;8.710;2023-08-21T19:27:00;8.60;;;4.33;;
45358;SDS011;31096;49.292;8.710;2023-08-21T19:31:51;5.63;;;3.90;;
45358;SDS011;31096;49.292;8.710;2023-08-21T19:36:42;5.53;;;4.07;;
45358;SDS011;31096;49.292;8.710;2023-08-21T19:41:32;5.50;;;4.20;;
45358;SDS011;31096;49.292;8.710;2023-08-21T19:46:23;5.30;;;3.85;;
45358;SDS011;31096;49.292;8.710;2023-08-21T19:51:14;6.30;;;3.77;;
45358;SDS011;31096;49.292;8.710;2023-08-21T19:56:05;5.43;;;3.75;;
45358;SDS011;31096;49.292;8.710;2023-08-21T20:00:55;6.67;;;3.83;;
45358;SDS011;31096;49.292;8.710;2023-08-21T20:05:46;6.63;;;4.13;;
45358;SDS011;31096;49.292;8.710;2023-08-21T20:10:38;6.63;;;3.80;;
45358;SDS011;31096;49.292;8.710;2023-08-21T20:15:29;7.27;;;4.33;;
45358;SDS011;31096;49.292;8.710;2023-08-21T20:20:20;5.25;;;3.75;;
45358;SDS011;31096;49.292;8.710;2023-08-21T20:25:11;5.00;;;3.60;;
45358;SDS011;31096;49.292;8.710;2023-08-21T20:30:02;5.53;;;4.00;;
45358;SDS011;31096;49.292;8.710;2023-08-21T20:34:55;6.03;;;3.60;;
45358;SDS011;31096;49.292;8.710;2023-08-21T20:39:48;8.17;;;4.13;;
45358;SDS011;31096;49.292;8.710;2023-08-21T20:44:39;7.05;;;3.70;;
45358;SDS011;31096;49.292;8.710;2023-08-21T20:49:30;9.20;;;4.30;;
45358;SDS011;31096;49.292;8.710;2023-08-21T20:54:24;6.30;;;3.53;;
45358;SDS011;31096;49.292;8.710;2023-08-21T20:59:15;6.40;;;3.90;;
45358;SDS011;31096;49.292;8.710;2023-08-21T21:04:06;5.95;;;3.80;;
45358;SDS011;31096;49.292;8.710;2023-08-21T21:08:56;5.87;;;3.63;;
45358;SDS011;31096;49.292;8.710;2023-08-21T21:13:47;7.20;;;4.03;;
45358;SDS011;31096;49.292;8.710;2023-08-21T21:18:38;5.80;;;3.75;;
45358;SDS011;31096;49.292;8.710;2023-08-21T21:23:28;6.10;;;4.07;;
45358;SDS011;31096;49.292;8.710;2023-08-21T21:28:19;6.05;;;4.10;;
45358;SDS011;31096;49.292;8.710;2023-08-21T21:33:10;5.83;;;4.27;;
45358;SDS011;31096;49.292;8.710;2023-08-21T21:38:01;5.83;;;4.10;;
45358;SDS011;31096;49.292;8.710;2023-08-21T21:42:52;6.85;;;4.15;;
45358;SDS011;31096;49.292;8.710;2023-08-21T21:47:42;5.80;;;3.80;;
45358;SDS011;31096;49.292;8.710;2023-08-21T21:52:33;7.07;;;3.88;;
45358;SDS011;31096;49.292;8.710;2023-08-21T21:57:24;5.93;;;3.90;;
45358;SDS011;31096;49.292;8.710;2023-08-21T22:02:15;5.43;;;3.80;;
45358;SDS011;31096;49.292;8.710;2023-08-21T22:07:05;6.33;;;4.13;;
45358;SDS011;31096;49.292;8.710;2023-08-21T22:11:56;9.97;;;4.07;;
45358;SDS011;31096;49.292;8.710;2023-08-21T22:16:47;8.20;;;4.80;;
45358;SDS011;31096;49.292;8.710;2023-08-21T22:21:37;7.43;;;4.13;;
45358;SDS011;31096;49.292;8.710;2023-08-21T22:26:28;5.90;;;4.60;;
45358;SDS011;31096;49.292;8.710;2023-08-21T22:31:19;6.70;;;4.15;;
45358;SDS011;31096;49.292;8.710;2023-08-21T22:36:09;7.07;;;4.30;;
45358;SDS011;31096;49.292;8.710;2023-08-21T22:41:03;5.53;;;3.87;;
45358;SDS011;31096;49.292;8.710;2023-08-21T22:45:54;6.13;;;3.92;;
45358;SDS011;31096;49.292;8.710;2023-08-21T22:50:45;6.37;;;3.83;;
45358;SDS011;31096;49.292;8.710;2023-08-21T22:55:35;7.30;;;4.67;;
45358;SDS011;31096;49.292;8.710;2023-08-21T23:00:26;5.80;;;4.10;;
45358;SDS011;31096;49.292;8.710;2023-08-21T23:05:17;6.20;;;4.00;;
45358;SDS011;31096;49.292;8.710;2023-08-21T23:10:08;6.23;;;3.53;;
45358;SDS011;31096;49.292;8.710;2023-08-21T23:14:59;5.13;;;3.15;;
45358;SDS011;31096;49.292;8.710;2023-08-21T23:19:49;6.27;;;4.23;;
45358;SDS011;31096;49.292;8.710;2023-08-21T23:24:40;7.13;;;3.90;;
45358;SDS011;31096;49.292;8.710;2023-08-21T23:29:31;7.47;;;4.25;;
45358;SDS011;31096;49.292;8.710;2023-08-21T23:34:21;6.07;;;3.90;;
45358;SDS011;31096;49.292;8.710;2023-08-21T23:39:12;7.07;;;3.90;;
45358;SDS011;31096;49.292;8.710;2023-08-21T23:44:03;6.82;;;4.30;;
45358;SDS011;31096;49.292;8.710;2023-08-21T23:48:56;5.40;;;3.47;;
45358;SDS011;31096;49.292;8.710;2023-08-21T23:53:47;6.05;;;4.32;;
45358;SDS011;31096;49.292;8.710;2023-08-21T23:58:37;6.20;;;3.93;;
